createdAt,value
2022-09-23T00:00:15.868Z,101346.25
2022-09-23T00:06:05.887Z,101334.97
2022-09-23T00:11:52.602Z,101336.34
2022-09-23T00:17:40.701Z,101320.03
2022-09-23T00:23:27.454Z,101315.75
2022-09-23T00:29:14.144Z,101295.06
2022-09-23T00:35:01.115Z,101291.81
2022-09-23T00:40:55.598Z,101299.28
2022-09-23T00:46:43.779Z,101315.34
2022-09-23T00:52:32.257Z,101317.94
2022-09-23T00:58:27.060Z,101317.72
2022-09-23T01:04:14.746Z,101302.19
2022-09-23T01:10:10.047Z,101305.84
2022-09-23T01:16:10.670Z,101311.47
2022-09-23T01:22:21.885Z,101299.38
2022-09-23T01:28:33.393Z,101289.47
2022-09-23T01:34:48.760Z,101298.06
2022-09-23T01:40:42.713Z,101291.09
2022-09-23T01:46:46.049Z,101294.06
2022-09-23T01:52:38.279Z,101303.56
2022-09-23T01:58:30.696Z,101286.84
2022-09-23T02:04:45.658Z,101275.25
2022-09-23T02:10:43.869Z,101264.97
2022-09-23T02:16:43.755Z,101269.94
2022-09-23T02:22:55.992Z,101278.44
2022-09-23T02:29:07.908Z,101279.44
2022-09-23T02:35:02.610Z,101264.16
2022-09-23T02:41:07.612Z,101282.59
2022-09-23T02:46:58.764Z,101276.06
2022-09-23T02:52:46.948Z,101269.28
2022-09-23T02:58:34.479Z,101258.19
2022-09-23T03:04:21.272Z,101253.41
2022-09-23T03:10:26.916Z,101251.94
2022-09-23T03:16:35.000Z,101232.28
2022-09-23T03:22:29.812Z,101240.81
2022-09-23T03:28:20.390Z,101243.34
2022-09-23T03:34:14.566Z,101237.28
2022-09-23T03:40:10.167Z,101234.84
2022-09-23T03:45:58.326Z,101234.25
2022-09-23T03:51:45.125Z,101244.94
2022-09-23T03:57:33.831Z,101228.28
2022-09-23T04:03:27.999Z,101224.03
2022-09-23T04:09:15.072Z,101229.16
2022-09-23T04:15:01.765Z,101227.50
2022-09-23T04:20:50.734Z,101233.38
2022-09-23T04:26:40.294Z,101228.03
2022-09-23T04:32:30.147Z,101228.34
2022-09-23T04:38:16.998Z,101216.34
2022-09-23T04:44:04.839Z,101220.16
2022-09-23T04:49:51.665Z,101225.00
2022-09-23T04:55:38.344Z,101215.88
2022-09-23T05:01:27.448Z,101208.81
2022-09-23T05:07:14.309Z,101217.34
2022-09-23T05:13:01.053Z,101208.69
2022-09-23T05:18:49.093Z,101210.41
2022-09-23T05:24:36.491Z,101216.22
2022-09-23T05:30:23.266Z,101212.44
2022-09-23T05:36:10.546Z,101208.81
2022-09-23T05:42:00.095Z,101230.97
2022-09-23T05:47:47.090Z,101230.59
2022-09-23T05:53:37.259Z,101232.28
2022-09-23T05:59:24.223Z,101226.16
2022-09-23T06:05:14.221Z,101230.06
2022-09-23T06:11:08.711Z,101234.50
2022-09-23T06:16:55.783Z,101237.75
2022-09-23T06:22:42.565Z,101235.81
2022-09-23T06:28:36.679Z,101234.66
2022-09-23T06:34:23.346Z,101243.66
2022-09-23T06:40:10.417Z,101241.16
2022-09-23T06:46:01.171Z,101244.13
2022-09-23T06:52:03.912Z,101247.00
2022-09-23T06:57:54.124Z,101254.41
2022-09-23T07:03:47.292Z,101248.66
2022-09-23T07:09:42.103Z,101257.22
2022-09-23T07:15:35.083Z,101259.75
2022-09-23T07:21:24.063Z,101250.03
2022-09-23T07:27:16.679Z,101256.63
2022-09-23T07:33:12.461Z,101259.91
2022-09-23T07:39:04.433Z,101255.25
2022-09-23T07:44:52.491Z,101265.91
2022-09-23T07:56:46.690Z,101270.66
2022-09-23T08:02:33.979Z,101272.81
2022-09-23T08:08:21.403Z,101263.03
2022-09-23T08:14:22.468Z,101266.69
2022-09-23T08:20:31.226Z,101270.28
2022-09-23T08:26:22.404Z,101266.44
2022-09-23T08:32:13.328Z,101275.22
2022-09-23T08:38:00.263Z,101267.41
2022-09-23T08:43:52.169Z,101272.41
2022-09-23T08:49:45.748Z,101289.47
2022-09-23T08:55:41.569Z,101280.78
2022-09-23T09:01:37.660Z,101292.06
2022-09-23T09:07:36.535Z,101284.88
2022-09-23T09:13:43.204Z,101291.00
2022-09-23T09:19:51.925Z,101299.50
2022-09-23T09:26:02.082Z,101299.34
2022-09-23T09:31:50.649Z,101307.44
2022-09-23T09:37:49.763Z,101301.03
2022-09-23T09:43:43.462Z,101292.03
2022-09-23T09:49:51.944Z,101296.81
2022-09-23T09:55:38.982Z,101280.78
2022-09-23T10:01:34.100Z,101280.66
2022-09-23T10:07:26.449Z,101284.25
2022-09-23T10:13:21.046Z,101287.47
2022-09-23T10:19:35.602Z,101271.19
2022-09-23T10:25:27.604Z,101266.22
2022-09-23T10:31:27.570Z,101263.66
2022-09-23T10:37:24.079Z,101262.31
2022-09-23T10:43:47.854Z,101245.50
2022-09-23T10:49:58.709Z,101244.66
2022-09-23T10:56:03.744Z,101240.91
2022-09-23T11:02:13.269Z,101253.75
2022-09-23T11:08:21.494Z,101239.63
2022-09-23T11:14:23.305Z,101224.38
2022-09-23T11:20:34.370Z,101231.97
2022-09-23T11:26:36.888Z,101235.13
2022-09-23T11:32:23.726Z,101217.88
2022-09-23T11:38:15.019Z,101220.34
2022-09-23T11:44:13.404Z,101202.19
2022-09-23T11:50:38.289Z,101191.38
2022-09-23T11:56:46.951Z,101182.75
2022-09-23T12:02:41.928Z,101197.88
2022-09-23T12:08:37.103Z,101194.13
2022-09-23T12:14:51.250Z,101182.44
2022-09-23T12:20:59.876Z,101192.25
2022-09-23T12:26:51.964Z,101194.06
2022-09-23T12:32:39.178Z,101194.91
2022-09-23T12:38:38.577Z,101174.25
2022-09-23T12:44:37.079Z,101187.63
2022-09-23T12:51:07.949Z,101158.78
2022-09-23T12:56:54.665Z,101151.94
2022-09-23T13:02:47.550Z,101148.56
2022-09-23T13:08:38.163Z,101144.63
2022-09-23T13:14:27.661Z,101154.69
2022-09-23T13:20:20.680Z,101143.00
2022-09-23T13:26:14.667Z,101154.75
2022-09-23T13:32:04.915Z,101136.63
2022-09-23T13:37:51.936Z,101143.06
2022-09-23T13:43:43.411Z,101133.03
2022-09-23T13:49:35.261Z,101136.34
2022-09-23T13:55:33.496Z,101140.75
2022-09-23T14:01:32.585Z,101128.13
2022-09-23T14:07:22.689Z,101123.59
2022-09-23T14:13:21.291Z,101109.28
2022-09-23T14:19:18.187Z,101107.69
2022-09-23T14:25:05.581Z,101101.91
2022-09-23T14:30:57.452Z,101087.00
2022-09-23T14:37:03.044Z,101085.16
2022-09-23T14:42:56.617Z,101080.13
2022-09-23T14:48:53.186Z,101072.81
2022-09-23T14:54:39.795Z,101067.00
2022-09-23T15:00:27.035Z,101067.56
2022-09-23T15:06:15.948Z,101067.03
2022-09-23T15:12:06.792Z,101060.22
2022-09-23T15:17:54.308Z,101079.41
2022-09-23T15:23:42.470Z,101071.16
2022-09-23T15:29:29.508Z,101062.41
2022-09-23T15:35:19.812Z,101065.53
2022-09-23T15:41:07.217Z,101071.03
2022-09-23T15:47:00.864Z,101045.66
2022-09-23T15:52:47.819Z,101047.25
2022-09-23T15:58:36.095Z,101049.69
2022-09-23T16:04:23.074Z,101048.53
2022-09-23T16:10:10.981Z,101048.97
2022-09-23T16:15:58.025Z,101053.06
2022-09-23T16:21:44.945Z,101050.38
2022-09-23T16:27:31.743Z,101052.94
2022-09-23T16:33:18.672Z,101054.41
2022-09-23T16:39:25.033Z,101063.41
2022-09-23T16:45:12.110Z,101054.47
2022-09-23T16:51:04.608Z,101054.72
2022-09-23T16:56:55.180Z,101061.97
2022-09-23T17:03:00.393Z,101071.09
2022-09-23T17:08:54.910Z,101074.88
2022-09-23T17:14:41.866Z,101077.13
2022-09-23T17:20:28.471Z,101084.56
2022-09-23T17:26:15.249Z,101089.47
2022-09-23T17:32:02.363Z,101096.88
2022-09-23T17:37:51.373Z,101095.91
2022-09-23T17:43:38.939Z,101105.38
2022-09-23T17:49:25.836Z,101102.25
2022-09-23T17:55:12.944Z,101088.81
2022-09-23T18:01:00.282Z,101098.13
2022-09-23T18:06:47.451Z,101100.78
2022-09-23T18:12:35.081Z,101108.06
2022-09-23T18:18:42.487Z,101102.25
2022-09-23T18:24:33.387Z,101110.41
2022-09-23T18:30:20.490Z,101115.25
2022-09-23T18:36:07.908Z,101110.22
2022-09-23T18:41:55.896Z,101110.13
2022-09-23T18:48:01.448Z,101125.09
2022-09-23T18:53:49.782Z,101129.53
2022-09-23T18:59:36.656Z,101133.41
2022-09-23T19:05:23.484Z,101139.44
2022-09-23T19:11:13.407Z,101140.06
2022-09-23T19:17:00.534Z,101145.06
2022-09-23T19:22:52.488Z,101149.09
2022-09-23T19:28:39.858Z,101158.47
2022-09-23T19:35:55.862Z,101151.75
2022-09-23T19:41:42.929Z,101159.06
2022-09-23T19:47:42.646Z,101160.94
2022-09-23T19:53:30.417Z,101156.81
2022-09-23T19:59:19.189Z,101161.09
2022-09-23T20:05:22.987Z,101159.81
2022-09-23T20:11:16.473Z,101165.69
2022-09-23T20:17:03.213Z,101166.28
2022-09-23T20:22:56.932Z,101157.44
2022-09-23T20:28:45.310Z,101161.16
2022-09-23T20:34:33.772Z,101167.66
2022-09-23T20:40:23.095Z,101156.72
2022-09-23T20:46:10.273Z,101159.56
2022-09-23T20:52:17.301Z,101158.91
2022-09-23T20:59:16.367Z,101160.59
2022-09-23T21:05:07.327Z,101163.38
2022-09-23T21:10:59.454Z,101160.75
2022-09-23T21:16:51.387Z,101159.09
2022-09-23T21:22:38.087Z,101162.53
2022-09-23T21:28:36.363Z,101154.41
2022-09-23T21:34:28.094Z,101166.09
2022-09-23T21:40:34.958Z,101171.78
2022-09-23T21:46:28.525Z,101183.50
2022-09-23T21:52:16.694Z,101169.53
2022-09-23T21:58:07.468Z,101170.72
2022-09-23T22:04:29.053Z,101172.56
2022-09-23T22:10:18.935Z,101175.06
2022-09-23T22:16:16.802Z,101187.03
2022-09-23T22:22:14.888Z,101185.53
2022-09-23T22:28:22.971Z,101189.00
2022-09-23T22:34:30.997Z,101202.06
2022-09-23T22:40:20.017Z,101191.34
2022-09-23T22:46:07.154Z,101189.81
2022-09-23T22:51:53.964Z,101200.44
2022-09-23T22:57:40.898Z,101198.66
2022-09-23T23:03:27.704Z,101200.53
2022-09-23T23:09:18.860Z,101198.41
2022-09-23T23:15:05.937Z,101201.44
2022-09-23T23:20:52.807Z,101193.97
2022-09-23T23:26:39.463Z,101191.72
2022-09-23T23:32:26.874Z,101203.53
2022-09-23T23:38:13.507Z,101202.94
2022-09-23T23:44:01.196Z,101200.41
2022-09-23T23:49:47.910Z,101199.59
2022-09-23T23:55:38.710Z,101210.13
